createdAt,value
2022-10-20T00:03:27.812Z,2.42
2022-10-20T00:08:30.470Z,3.88
2022-10-20T00:13:34.399Z,2.22
2022-10-20T00:18:37.750Z,3.85
2022-10-20T00:23:40.352Z,4.35
2022-10-20T00:28:44.774Z,1.92
2022-10-20T00:33:47.818Z,1.48
2022-10-20T00:38:50.869Z,3.28
2022-10-20T00:43:56.173Z,1.83
2022-10-20T00:49:01.451Z,1.63
2022-10-20T00:54:09.033Z,1.20
2022-10-20T00:59:15.939Z,4.10
2022-10-20T01:04:18.958Z,2.95
2022-10-20T01:09:21.632Z,1.52
2022-10-20T01:14:36.307Z,7.70
2022-10-20T01:19:53.748Z,1.95
2022-10-20T01:25:02.624Z,1.30
2022-10-20T01:30:12.582Z,1.42
2022-10-20T01:35:22.193Z,1.27
2022-10-20T01:40:28.507Z,1.50
2022-10-20T01:45:34.993Z,2.30
2022-10-20T01:50:38.343Z,1.75
2022-10-20T01:55:41.546Z,3.55
2022-10-20T02:00:45.998Z,1.10
2022-10-20T02:05:58.307Z,1.20
2022-10-20T02:11:03.134Z,1.35
2022-10-20T02:16:10.567Z,1.42
2022-10-20T02:21:13.279Z,1.38
2022-10-20T02:26:17.189Z,1.48
2022-10-20T02:31:21.703Z,1.98
2022-10-20T02:36:28.074Z,1.33
2022-10-20T02:41:31.148Z,3.42
2022-10-20T02:46:35.252Z,0.75
2022-10-20T02:51:38.024Z,4.93
2022-10-20T02:56:40.616Z,1.10
2022-10-20T03:01:44.848Z,3.25
2022-10-20T03:06:47.543Z,1.35
2022-10-20T03:11:50.123Z,2.20
2022-10-20T03:16:54.063Z,1.73
2022-10-20T03:21:56.687Z,2.38
2022-10-20T03:26:59.351Z,1.30
2022-10-20T03:32:03.286Z,3.53
2022-10-20T03:37:06.021Z,8.30
2022-10-20T03:42:08.670Z,1.95
2022-10-20T03:47:13.138Z,2.10
2022-10-20T03:52:15.761Z,1.50
2022-10-20T03:57:18.447Z,5.50
2022-10-20T04:02:31.715Z,2.50
2022-10-20T04:07:34.419Z,3.40
2022-10-20T04:12:37.627Z,2.00
2022-10-20T04:17:41.969Z,3.05
2022-10-20T04:22:44.595Z,3.10
2022-10-20T04:27:47.211Z,3.72
2022-10-20T04:32:51.263Z,4.20
2022-10-20T04:37:55.511Z,5.07
2022-10-20T04:42:59.982Z,4.00
2022-10-20T04:48:05.821Z,3.85
2022-10-20T04:53:08.606Z,2.20
2022-10-20T04:58:11.381Z,2.65
2022-10-20T05:03:15.386Z,4.32
2022-10-20T05:08:17.996Z,2.80
2022-10-20T05:13:20.702Z,2.65
2022-10-20T05:18:24.973Z,2.38
2022-10-20T05:23:27.682Z,3.72
2022-10-20T05:28:30.516Z,3.20
2022-10-20T05:33:34.721Z,4.18
2022-10-20T05:38:37.879Z,4.93
2022-10-20T05:43:41.312Z,5.57
2022-10-20T05:48:45.414Z,4.20
2022-10-20T05:53:48.441Z,4.53
2022-10-20T05:58:51.023Z,3.15
2022-10-20T06:03:56.577Z,2.88
2022-10-20T06:09:00.519Z,4.65
2022-10-20T06:14:03.259Z,7.57
2022-10-20T06:19:07.816Z,5.70
2022-10-20T06:24:11.057Z,2.88
2022-10-20T06:29:16.203Z,6.30
2022-10-20T06:34:21.666Z,5.18
2022-10-20T06:39:25.095Z,4.93
2022-10-20T06:44:27.737Z,6.95
2022-10-20T06:49:32.102Z,7.78
2022-10-20T06:54:34.717Z,4.32
2022-10-20T06:59:38.672Z,5.07
2022-10-20T07:04:42.929Z,3.75
2022-10-20T07:09:45.526Z,5.88
2022-10-20T07:14:49.203Z,3.83
2022-10-20T07:19:53.338Z,6.55
2022-10-20T07:24:56.066Z,7.82
2022-10-20T07:29:58.670Z,4.70
2022-10-20T07:35:02.677Z,5.28
2022-10-20T07:40:06.324Z,5.15
2022-10-20T07:45:09.870Z,6.07
2022-10-20T07:50:13.968Z,5.90
2022-10-20T07:55:33.529Z,5.10
2022-10-20T08:05:48.413Z,3.40
2022-10-20T08:10:51.230Z,9.60
2022-10-20T08:15:54.025Z,3.20
2022-10-20T08:21:09.374Z,6.32
2022-10-20T08:26:13.078Z,5.07
2022-10-20T08:31:15.795Z,5.03
2022-10-20T08:36:19.888Z,3.72
2022-10-20T08:41:24.752Z,4.80
2022-10-20T08:46:30.770Z,2.58
2022-10-20T08:51:38.202Z,3.63
2022-10-20T08:56:40.940Z,2.15
2022-10-20T09:01:43.636Z,2.50
2022-10-20T09:06:51.367Z,3.53
2022-10-20T09:11:57.215Z,2.85
2022-10-20T09:17:00.851Z,1.92
2022-10-20T09:22:07.424Z,2.17
2022-10-20T09:27:22.602Z,2.72
2022-10-20T09:32:45.909Z,2.45
2022-10-20T09:38:03.025Z,2.67
2022-10-20T09:43:10.642Z,3.20
2022-10-20T09:48:20.305Z,2.63
2022-10-20T09:53:26.773Z,2.92
2022-10-20T09:58:31.193Z,2.05
2022-10-20T10:03:39.901Z,2.97
2022-10-20T10:08:46.774Z,2.55
2022-10-20T10:13:50.766Z,2.15
2022-10-20T10:18:59.770Z,2.85
2022-10-20T10:24:05.579Z,3.50
2022-10-20T10:29:17.669Z,3.80
2022-10-20T10:34:44.991Z,2.85
2022-10-20T10:39:49.550Z,2.85
2022-10-20T10:44:57.471Z,3.13
2022-10-20T10:50:04.555Z,4.13
2022-10-20T10:55:30.504Z,4.57
2022-10-20T11:00:43.902Z,5.28
2022-10-20T11:06:15.457Z,4.97
2022-10-20T11:11:28.724Z,4.43
2022-10-20T11:16:34.351Z,4.60
2022-10-20T11:21:44.550Z,4.22
2022-10-20T11:26:52.167Z,3.13
2022-10-20T11:31:58.719Z,3.53
2022-10-20T11:37:05.996Z,5.30
2022-10-20T11:42:19.826Z,3.22
2022-10-20T11:47:26.819Z,4.47
2022-10-20T11:53:00.635Z,3.85
2022-10-20T11:58:15.839Z,5.18
2022-10-20T12:03:46.914Z,3.97
2022-10-20T12:09:20.399Z,4.32
2022-10-20T12:14:27.375Z,2.65
2022-10-20T12:19:31.449Z,4.32
2022-10-20T12:24:36.955Z,2.95
2022-10-20T12:29:58.401Z,5.05
2022-10-20T12:35:02.653Z,7.07
2022-10-20T12:40:21.630Z,4.18
2022-10-20T12:45:36.784Z,5.72
2022-10-20T12:50:41.611Z,3.65
2022-10-20T12:55:45.689Z,4.43
2022-10-20T13:01:09.637Z,4.35
2022-10-20T13:06:45.141Z,2.55
2022-10-20T13:11:58.157Z,2.33
2022-10-20T13:17:11.673Z,3.13
2022-10-20T13:22:38.925Z,2.63
2022-10-20T13:27:41.627Z,2.53
2022-10-20T13:33:10.877Z,2.88
2022-10-20T13:38:18.039Z,3.97
2022-10-20T13:43:30.791Z,4.15
2022-10-20T13:48:45.293Z,1.65
2022-10-20T13:53:50.094Z,2.83
2022-10-20T13:59:04.536Z,1.98
2022-10-20T14:04:26.159Z,2.33
2022-10-20T14:09:28.796Z,2.67
2022-10-20T14:14:32.034Z,2.47
2022-10-20T14:19:36.457Z,1.98
2022-10-20T14:24:43.121Z,1.88
2022-10-20T14:29:46.541Z,5.25
2022-10-20T14:34:58.656Z,2.72
2022-10-20T14:40:02.310Z,2.58
2022-10-20T14:45:05.881Z,5.35
2022-10-20T14:50:21.383Z,2.13
2022-10-20T14:55:35.274Z,6.57
2022-10-20T15:00:38.454Z,4.18
2022-10-20T15:05:45.228Z,2.45
2022-10-20T15:10:47.950Z,3.85
2022-10-20T15:15:50.753Z,4.75
2022-10-20T15:20:55.654Z,2.97
2022-10-20T15:26:00.330Z,2.33
2022-10-20T15:31:05.148Z,2.75
2022-10-20T15:36:14.994Z,3.80
2022-10-20T15:41:19.444Z,2.63
2022-10-20T15:46:22.880Z,4.00
2022-10-20T15:51:28.676Z,4.75
2022-10-20T15:56:31.274Z,4.65
2022-10-20T16:01:34.234Z,2.30
2022-10-20T16:06:38.721Z,4.53
2022-10-20T16:11:41.333Z,4.32
2022-10-20T16:16:45.100Z,5.47
2022-10-20T16:21:49.235Z,4.53
2022-10-20T16:26:52.706Z,4.30
2022-10-20T16:31:55.667Z,6.07
2022-10-20T16:36:59.765Z,4.03
2022-10-20T16:42:02.545Z,6.45
2022-10-20T16:47:05.565Z,3.88
2022-10-20T16:52:09.660Z,4.78
2022-10-20T16:57:13.054Z,5.38
2022-10-20T17:02:16.253Z,3.60
2022-10-20T17:07:20.419Z,5.32
2022-10-20T17:12:23.198Z,4.63
2022-10-20T17:17:25.871Z,6.30
2022-10-20T17:22:29.955Z,7.75
2022-10-20T17:27:32.830Z,7.63
2022-10-20T17:32:36.379Z,7.72
2022-10-20T17:37:40.658Z,6.35
2022-10-20T17:42:43.379Z,5.43
2022-10-20T17:47:46.158Z,5.60
2022-10-20T17:52:50.642Z,11.70
2022-10-20T17:57:53.302Z,6.05
2022-10-20T18:02:56.059Z,6.50
2022-10-20T18:08:00.287Z,6.57
2022-10-20T18:13:03.136Z,6.60
2022-10-20T18:18:06.212Z,7.07
2022-10-20T18:23:10.513Z,7.88
2022-10-20T18:33:24.278Z,5.55
2022-10-20T18:38:28.426Z,7.35
2022-10-20T18:43:31.041Z,7.57
2022-10-20T18:48:35.597Z,11.05
2022-10-20T18:58:49.286Z,6.38
2022-10-20T19:03:53.168Z,9.45
2022-10-20T19:08:58.260Z,7.55
2022-10-20T19:14:01.481Z,8.55
2022-10-20T19:19:06.381Z,7.45
2022-10-20T19:24:13.489Z,8.10
2022-10-20T19:29:18.453Z,7.90
2022-10-20T19:34:23.154Z,8.48
2022-10-20T19:39:29.594Z,8.38
2022-10-20T19:44:32.422Z,10.40
2022-10-20T19:49:37.630Z,7.65
2022-10-20T19:54:42.012Z,10.90
2022-10-20T19:59:44.846Z,11.60
2022-10-20T20:04:47.850Z,25.40
2022-10-20T20:09:51.997Z,14.25
2022-10-20T20:14:54.695Z,15.05
2022-10-20T20:19:57.906Z,7.78
2022-10-20T20:25:02.067Z,8.27
2022-10-20T20:30:05.337Z,7.93
2022-10-20T20:35:09.477Z,6.07
2022-10-20T20:40:13.863Z,7.18
2022-10-20T20:45:16.793Z,5.63
2022-10-20T20:50:19.552Z,5.93
2022-10-20T20:55:23.479Z,6.53
2022-10-20T21:00:26.301Z,10.73
2022-10-20T21:05:29.385Z,7.22
2022-10-20T21:10:35.609Z,11.40
2022-10-20T21:15:38.285Z,8.40
2022-10-20T21:20:41.100Z,7.93
2022-10-20T21:25:47.851Z,6.72
2022-10-20T21:30:50.757Z,5.55
2022-10-20T21:35:53.383Z,5.78
2022-10-20T21:41:02.332Z,8.55
2022-10-20T21:46:13.502Z,9.20
2022-10-20T21:51:18.170Z,6.75
2022-10-20T21:56:22.151Z,6.60
2022-10-20T22:01:25.915Z,6.53
2022-10-20T22:06:28.801Z,6.13
2022-10-20T22:11:34.531Z,8.95
2022-10-20T22:16:38.346Z,5.25
2022-10-20T22:21:43.111Z,6.80
2022-10-20T22:26:47.849Z,6.53
2022-10-20T22:31:51.134Z,4.85
2022-10-20T22:36:53.725Z,5.95
2022-10-20T22:41:57.743Z,4.68
2022-10-20T22:47:00.313Z,4.50
2022-10-20T22:52:02.973Z,4.75
2022-10-20T22:57:07.019Z,5.25
2022-10-20T23:02:09.687Z,5.53
2022-10-20T23:07:12.284Z,3.50
2022-10-20T23:12:18.133Z,6.05
2022-10-20T23:17:20.754Z,4.93
2022-10-20T23:22:23.367Z,8.43
2022-10-20T23:27:27.315Z,4.07
2022-10-20T23:32:29.965Z,6.85
2022-10-20T23:37:32.611Z,4.22
2022-10-20T23:42:36.541Z,3.88
2022-10-20T23:47:39.538Z,5.78
2022-10-20T23:52:42.382Z,6.05
2022-10-20T23:57:46.320Z,6.60
